SBMO/MCZ METAR and TAF weather

Enter ICAO airport designator
Station Type Date Time Source
SBMO METAR 2019/06/27 04:00 UTC NOAA

SBMO 270400Z 10007KT 6000 -RA SCT006 SCT015 BKN070 23/21 Q1017


Station Type Date Time Source
SBMO Decoded METAR 2019/06/27 04:00 UTC NOAA

Maceio Aeroporto , Brazil (SBMO) 09-31S 035-47W 115M
Jun 27, 2019 - 12:00 AM EDT / 2019.06.27 0400 UTC
Wind: from the E (100 degrees) at 8 MPH (7 KT):0
Visibility: 3 mile(s):0
Sky conditions: mostly cloudy
Weather: light rain
Temperature: 73 F (23 C)
Dew Point: 69 F (21 C)
Relative Humidity: 88%
Pressure (altimeter): 30.03 in. Hg (1017 hPa)
ob: SBMO 270400Z 10007KT 6000 -RA SCT006 SCT015 BKN070 23/21 Q1017
cycle: 4

Station Type Date Time Source
SBMO TAF 2019/06/27 00:00 UTC NOAA

TAF SBMO 262200Z 2700/2712 09004KT 9999 FEW025 TN22/2705Z TX24/2712Z
BECMG 2702/2704 33005KT SCT018
RMK PCQ

Example: see airport list